createdAt,value
2022-12-23T00:01:22.307Z,5.67
2022-12-23T00:03:50.119Z,5.83
2022-12-23T00:06:20.977Z,6.20
2022-12-23T00:08:48.872Z,6.40
2022-12-23T00:11:18.067Z,6.37
2022-12-23T00:14:04.213Z,7.27
2022-12-23T00:16:32.255Z,7.97
2022-12-23T00:19:00.029Z,7.23
2022-12-23T00:21:29.411Z,6.83
2022-12-23T00:23:57.147Z,7.10
2022-12-23T00:26:28.458Z,7.80
2022-12-23T00:28:58.197Z,7.20
2022-12-23T00:31:26.817Z,6.80
2022-12-23T00:33:54.615Z,7.20
2022-12-23T00:36:27.734Z,7.63
2022-12-23T00:39:15.670Z,7.33
2022-12-23T00:42:01.166Z,7.03
2022-12-23T00:44:28.982Z,6.67
2022-12-23T00:46:56.764Z,7.13
2022-12-23T00:49:41.896Z,5.87
2022-12-23T00:52:12.132Z,6.87
2022-12-23T00:54:41.476Z,7.23
2022-12-23T00:57:10.093Z,7.40
2022-12-23T00:59:38.108Z,7.63
2022-12-23T01:02:23.545Z,7.67
2022-12-23T01:05:08.840Z,7.60
2022-12-23T01:07:36.800Z,6.77
2022-12-23T01:10:06.696Z,7.07
2022-12-23T01:12:34.445Z,7.83
2022-12-23T01:15:02.191Z,8.63
2022-12-23T01:17:29.939Z,7.63
2022-12-23T01:19:57.740Z,7.77
2022-12-23T01:22:26.445Z,8.87
2022-12-23T01:24:55.143Z,8.00
2022-12-23T01:27:24.488Z,8.33
2022-12-23T01:29:52.387Z,8.43
2022-12-23T01:32:20.407Z,9.17
2022-12-23T01:34:48.203Z,9.40
2022-12-23T01:37:16.329Z,9.53
2022-12-23T01:39:44.515Z,8.77
2022-12-23T01:42:31.643Z,9.10
2022-12-23T01:45:02.207Z,9.40
2022-12-23T01:47:37.528Z,9.33
2022-12-23T01:50:12.663Z,8.57
2022-12-23T01:52:46.095Z,9.60
2022-12-23T01:55:18.349Z,8.00
2022-12-23T01:57:48.182Z,9.40
2022-12-23T02:00:48.032Z,10.10
2022-12-23T02:03:32.506Z,9.60
2022-12-23T02:06:21.187Z,9.33
2022-12-23T02:09:06.318Z,9.47
2022-12-23T02:11:58.901Z,10.23
2022-12-23T02:14:55.070Z,10.63
2022-12-23T02:17:30.650Z,11.40
2022-12-23T02:20:25.849Z,11.13
2022-12-23T02:23:17.247Z,11.57
2022-12-23T02:26:01.719Z,11.13
2022-12-23T02:28:59.136Z,10.83
2022-12-23T02:31:32.624Z,11.43
2022-12-23T02:34:09.988Z,11.30
2022-12-23T02:36:47.106Z,11.67
2022-12-23T02:39:22.039Z,11.77
2022-12-23T02:41:58.212Z,12.10
2022-12-23T02:44:34.286Z,11.03
2022-12-23T02:47:08.949Z,10.93
2022-12-23T02:49:41.183Z,11.10
2022-12-23T02:52:14.086Z,11.23
2022-12-23T02:54:46.486Z,10.80
2022-12-23T02:57:17.928Z,10.60
2022-12-23T02:59:49.501Z,11.23
2022-12-23T03:02:19.273Z,12.10
2022-12-23T03:04:47.096Z,11.23
2022-12-23T03:07:19.831Z,10.43
2022-12-23T03:09:57.998Z,11.40
2022-12-23T03:12:37.699Z,10.97
2022-12-23T03:15:19.058Z,11.10
2022-12-23T03:18:02.430Z,11.93
2022-12-23T03:20:38.926Z,11.63
2022-12-23T03:23:12.744Z,11.47
2022-12-23T03:25:46.667Z,10.90
2022-12-23T03:28:18.943Z,11.07
2022-12-23T03:30:50.089Z,13.47
2022-12-23T03:33:23.839Z,11.33
2022-12-23T03:35:56.313Z,11.03
2022-12-23T03:38:24.588Z,11.53
2022-12-23T03:40:58.030Z,11.10
2022-12-23T03:43:30.595Z,11.67
2022-12-23T03:46:05.971Z,10.77
2022-12-23T03:48:38.714Z,10.70
2022-12-23T03:51:14.287Z,10.57
2022-12-23T03:53:47.910Z,11.07
2022-12-23T03:56:20.338Z,8.70
2022-12-23T03:58:53.358Z,10.93
2022-12-23T04:01:29.798Z,9.20
2022-12-23T04:04:03.430Z,9.47
2022-12-23T04:06:36.161Z,8.80
2022-12-23T04:09:05.635Z,8.73
2022-12-23T04:11:35.162Z,8.70
2022-12-23T04:14:03.057Z,9.10
2022-12-23T04:16:31.265Z,8.73
2022-12-23T04:19:00.561Z,9.07
2022-12-23T04:21:28.260Z,9.40
2022-12-23T04:23:56.116Z,8.60
2022-12-23T04:26:24.177Z,8.17
2022-12-23T04:28:52.114Z,8.53
2022-12-23T04:31:21.286Z,8.17
2022-12-23T04:33:49.014Z,8.30
2022-12-23T04:36:18.532Z,8.33
2022-12-23T04:38:46.693Z,8.07
2022-12-23T04:41:14.581Z,7.27
2022-12-23T04:43:44.386Z,7.27
2022-12-23T04:46:15.548Z,8.17
2022-12-23T04:48:43.322Z,6.70
2022-12-23T04:51:11.078Z,7.63
2022-12-23T04:53:40.377Z,6.77
2022-12-23T04:56:08.301Z,6.97
2022-12-23T04:58:36.136Z,6.57
2022-12-23T05:01:05.801Z,7.33
2022-12-23T05:03:34.317Z,6.80
2022-12-23T05:06:02.012Z,6.43
2022-12-23T05:08:30.388Z,6.23
2022-12-23T05:11:00.213Z,6.93
2022-12-23T05:13:29.476Z,6.43
2022-12-23T05:15:57.261Z,6.37
2022-12-23T05:18:25.128Z,6.27
2022-12-23T05:20:53.606Z,6.47
2022-12-23T05:23:21.364Z,5.87
2022-12-23T05:25:52.983Z,6.13
2022-12-23T05:28:22.938Z,6.03
2022-12-23T05:30:51.150Z,6.17
2022-12-23T05:33:19.066Z,5.60
2022-12-23T05:35:46.812Z,6.23
2022-12-23T05:38:14.605Z,6.67
2022-12-23T05:40:43.675Z,6.43
2022-12-23T05:43:11.623Z,7.10
2022-12-23T05:45:42.487Z,7.83
2022-12-23T05:48:10.938Z,7.00
2022-12-23T05:50:40.325Z,7.43
2022-12-23T05:53:08.916Z,7.63
2022-12-23T05:55:37.341Z,7.30
2022-12-23T05:58:06.581Z,7.30
2022-12-23T06:00:34.561Z,6.40
2022-12-23T06:03:04.472Z,7.33
2022-12-23T06:05:32.142Z,6.83
2022-12-23T06:07:59.965Z,7.00
2022-12-23T06:10:28.074Z,6.43
2022-12-23T06:12:56.066Z,6.93
2022-12-23T06:15:23.877Z,6.87
2022-12-23T06:17:51.973Z,7.80
2022-12-23T06:20:21.449Z,7.17
2022-12-23T06:22:49.455Z,7.63
2022-12-23T06:25:17.647Z,6.83
2022-12-23T06:27:45.752Z,7.37
2022-12-23T06:30:17.400Z,7.27
2022-12-23T06:32:45.786Z,7.30
2022-12-23T06:35:14.695Z,7.17
2022-12-23T06:37:45.394Z,7.00
2022-12-23T06:40:14.362Z,7.20
2022-12-23T06:42:42.623Z,7.37
2022-12-23T06:45:11.415Z,6.80
2022-12-23T06:47:39.327Z,6.70
2022-12-23T06:50:09.654Z,6.83
2022-12-23T06:52:37.596Z,6.67
2022-12-23T06:55:07.505Z,7.57
2022-12-23T06:57:35.363Z,6.80
2022-12-23T07:00:03.934Z,8.00
2022-12-23T07:02:32.771Z,6.97
2022-12-23T07:05:00.550Z,7.53
2022-12-23T07:07:28.381Z,7.93
2022-12-23T07:09:56.365Z,8.10
2022-12-23T07:12:25.929Z,7.70
2022-12-23T07:14:53.685Z,7.83
2022-12-23T07:17:21.370Z,8.03
2022-12-23T07:19:49.268Z,8.13
2022-12-23T07:22:17.454Z,8.27
2022-12-23T07:24:45.114Z,9.10
2022-12-23T07:27:13.065Z,8.33
2022-12-23T07:29:42.795Z,8.20
2022-12-23T07:32:10.715Z,8.70
2022-12-23T07:34:38.948Z,8.70
2022-12-23T07:37:06.694Z,9.63
2022-12-23T07:39:34.820Z,9.43
2022-12-23T07:42:34.001Z,9.37
2022-12-23T07:44:52.300Z,8.90
2022-12-23T07:47:19.949Z,8.90
2022-12-23T07:49:47.865Z,8.73
2022-12-23T07:52:15.737Z,9.37
2022-12-23T07:54:43.667Z,8.63
2022-12-23T07:57:11.924Z,9.10
2022-12-23T07:59:39.713Z,8.67
2022-12-23T08:02:10.434Z,9.33
2022-12-23T08:04:44.120Z,10.00
2022-12-23T08:07:14.220Z,8.97
2022-12-23T08:09:42.201Z,9.40
2022-12-23T08:12:09.936Z,9.33
2022-12-23T08:14:37.851Z,9.50
2022-12-23T08:17:05.737Z,9.13
2022-12-23T08:19:35.104Z,11.17
2022-12-23T08:22:03.259Z,12.20
2022-12-23T08:24:32.183Z,11.97
2022-12-23T08:26:59.843Z,12.40
2022-12-23T08:29:32.531Z,10.77
2022-12-23T08:32:04.176Z,10.37
2022-12-23T08:34:32.002Z,10.80
2022-12-23T08:37:01.419Z,11.07
2022-12-23T08:39:30.335Z,9.90
2022-12-23T08:41:58.042Z,10.07
2022-12-23T08:44:28.018Z,10.63
2022-12-23T08:46:55.964Z,9.63
2022-12-23T08:49:23.813Z,9.23
2022-12-23T08:51:53.117Z,10.33
2022-12-23T08:54:23.886Z,10.37
2022-12-23T08:56:52.187Z,11.17
2022-12-23T08:59:20.158Z,10.10
2022-12-23T09:01:48.647Z,10.00
2022-12-23T09:04:17.160Z,9.77
2022-12-23T09:06:45.443Z,9.70
2022-12-23T09:09:15.695Z,9.70
2022-12-23T09:11:45.458Z,11.50
2022-12-23T09:14:13.189Z,11.73
2022-12-23T09:16:41.597Z,10.50
2022-12-23T09:19:09.734Z,9.73
2022-12-23T09:21:38.572Z,9.70
2022-12-23T09:24:07.985Z,9.63
2022-12-23T09:26:36.303Z,9.43
2022-12-23T09:29:05.551Z,9.43
2022-12-23T09:31:37.181Z,10.07
2022-12-23T09:34:09.718Z,9.43
2022-12-23T09:36:37.773Z,9.93
2022-12-23T09:39:05.507Z,10.27
2022-12-23T09:41:50.311Z,10.30
2022-12-23T09:44:42.089Z,9.80
2022-12-23T09:47:16.304Z,9.90
2022-12-23T09:49:49.094Z,9.93
2022-12-23T09:52:25.391Z,10.30
2022-12-23T09:54:55.125Z,10.50
2022-12-23T09:57:30.047Z,10.67
2022-12-23T10:00:12.431Z,10.50
2022-12-23T10:02:55.160Z,10.63
2022-12-23T10:05:31.109Z,10.67
2022-12-23T10:08:05.002Z,10.47
2022-12-23T10:10:39.200Z,10.53
2022-12-23T10:13:11.910Z,11.30
2022-12-23T10:15:46.577Z,13.07
2022-12-23T10:18:22.410Z,12.93
2022-12-23T10:20:54.446Z,14.73
2022-12-23T10:23:29.784Z,11.33
2022-12-23T10:26:05.325Z,11.67
2022-12-23T10:28:33.402Z,10.23
2022-12-23T10:31:38.103Z,10.77
2022-12-23T10:34:01.511Z,10.57
2022-12-23T10:36:39.629Z,10.47
2022-12-23T10:39:16.923Z,10.70
2022-12-23T10:41:53.428Z,9.70
2022-12-23T10:44:48.345Z,10.07
2022-12-23T10:47:24.305Z,9.57
2022-12-23T10:50:03.993Z,9.77
2022-12-23T10:52:35.782Z,10.77
2022-12-23T10:55:06.135Z,10.20
2022-12-23T10:57:34.467Z,10.33
2022-12-23T11:00:02.725Z,9.97
2022-12-23T11:02:46.837Z,10.40
2022-12-23T11:05:24.621Z,10.07
2022-12-23T11:07:52.715Z,9.70
2022-12-23T11:10:23.325Z,9.83
2022-12-23T11:12:54.975Z,10.20
2022-12-23T11:15:29.164Z,10.10
2022-12-23T11:18:19.822Z,9.60
2022-12-23T11:21:03.873Z,9.53
2022-12-23T11:23:33.687Z,10.30
2022-12-23T11:26:04.188Z,10.10
2022-12-23T11:28:34.220Z,9.70
2022-12-23T11:31:05.814Z,9.90
2022-12-23T11:33:37.493Z,9.73
2022-12-23T11:36:08.702Z,9.43
2022-12-23T11:38:39.359Z,10.37
2022-12-23T11:41:08.734Z,9.50
2022-12-23T11:43:36.611Z,10.20
2022-12-23T11:46:20.023Z,9.60
2022-12-23T11:48:54.518Z,9.50
2022-12-23T11:51:27.179Z,9.00
2022-12-23T11:54:01.643Z,8.50
2022-12-23T11:56:30.320Z,9.67
2022-12-23T11:59:04.421Z,9.43
2022-12-23T12:01:37.291Z,8.90
2022-12-23T12:04:10.104Z,8.80
2022-12-23T12:06:48.455Z,9.60
2022-12-23T12:09:21.793Z,9.33
2022-12-23T12:11:53.967Z,9.53
2022-12-23T12:14:28.362Z,10.03
2022-12-23T12:17:02.496Z,10.87
2022-12-23T12:19:36.675Z,10.40
2022-12-23T12:22:10.775Z,9.67
2022-12-23T12:24:42.926Z,9.80
2022-12-23T12:27:12.897Z,9.77
2022-12-23T12:29:46.420Z,10.03
2022-12-23T12:32:24.091Z,10.10
2022-12-23T12:34:59.224Z,11.13
2022-12-23T12:37:36.470Z,11.30
2022-12-23T12:40:14.336Z,11.80
2022-12-23T12:42:44.142Z,12.10
2022-12-23T12:45:17.852Z,11.07
2022-12-23T12:47:55.778Z,11.60
2022-12-23T12:50:31.426Z,12.43
2022-12-23T12:53:04.944Z,11.63
2022-12-23T12:55:36.775Z,11.50
2022-12-23T12:58:04.920Z,12.00
2022-12-23T13:00:42.800Z,11.63
2022-12-23T13:03:32.141Z,10.90
2022-12-23T13:06:12.989Z,10.37
2022-12-23T13:08:58.679Z,12.77
2022-12-23T13:11:31.963Z,10.47
2022-12-23T13:14:09.101Z,10.47
2022-12-23T13:16:46.203Z,10.90
2022-12-23T13:19:27.225Z,11.40
2022-12-23T13:22:04.759Z,10.90
2022-12-23T13:24:43.914Z,9.77
2022-12-23T13:27:19.964Z,10.20
2022-12-23T13:30:07.580Z,10.97
2022-12-23T13:32:53.793Z,10.13
2022-12-23T13:35:34.647Z,10.53
2022-12-23T13:38:15.986Z,10.30
2022-12-23T13:40:50.291Z,9.30
2022-12-23T13:43:21.796Z,10.30
2022-12-23T13:45:53.256Z,9.80
2022-12-23T13:48:37.091Z,10.20
2022-12-23T13:51:10.100Z,10.10
2022-12-23T13:53:51.242Z,10.17
2022-12-23T13:56:27.103Z,9.40
2022-12-23T13:58:55.511Z,9.97
2022-12-23T14:01:34.785Z,10.57
2022-12-23T14:04:34.890Z,10.53
2022-12-23T14:07:07.452Z,12.23
2022-12-23T14:09:39.311Z,11.23
2022-12-23T14:12:23.732Z,10.20
2022-12-23T14:15:13.505Z,10.07
2022-12-23T14:17:51.282Z,10.10
2022-12-23T14:20:30.541Z,10.50
2022-12-23T14:23:10.453Z,10.47
2022-12-23T14:25:56.227Z,10.27
2022-12-23T14:28:44.877Z,10.27
2022-12-23T14:31:32.313Z,11.97
2022-12-23T14:34:06.071Z,10.07
2022-12-23T14:36:35.117Z,10.80
2022-12-23T14:39:30.487Z,10.67
2022-12-23T14:42:06.078Z,10.63
2022-12-23T14:44:49.792Z,10.50
2022-12-23T14:47:31.853Z,9.90
2022-12-23T14:50:35.503Z,10.47
2022-12-23T14:53:20.741Z,10.50
2022-12-23T14:55:50.779Z,10.33
2022-12-23T14:59:01.623Z,10.20
2022-12-23T15:01:39.841Z,10.07
2022-12-23T15:04:19.402Z,10.67
2022-12-23T15:06:51.452Z,9.97
2022-12-23T15:09:27.501Z,9.83
2022-12-23T15:11:57.265Z,9.80
2022-12-23T15:14:32.497Z,10.73
2022-12-23T15:17:00.835Z,9.97
2022-12-23T15:19:29.700Z,11.03
2022-12-23T15:22:20.803Z,10.03
2022-12-23T15:24:53.210Z,11.13
2022-12-23T15:27:30.219Z,10.63
2022-12-23T15:29:59.780Z,10.57
2022-12-23T15:32:29.774Z,9.77
2022-12-23T15:35:03.593Z,9.70
2022-12-23T15:37:32.644Z,9.83
2022-12-23T15:40:12.178Z,9.80
2022-12-23T15:42:48.259Z,10.83
2022-12-23T15:45:32.226Z,8.93
2022-12-23T15:47:59.968Z,10.30
2022-12-23T15:50:28.622Z,9.83
2022-12-23T15:53:00.090Z,9.57
2022-12-23T15:55:32.793Z,9.10
2022-12-23T15:58:02.177Z,8.87
2022-12-23T16:00:37.368Z,9.33
2022-12-23T16:03:11.912Z,9.60
2022-12-23T16:05:45.064Z,8.53
2022-12-23T16:08:28.911Z,8.03
2022-12-23T16:11:07.155Z,10.20
2022-12-23T16:13:38.191Z,9.30
2022-12-23T16:16:34.797Z,9.17
2022-12-23T16:19:02.812Z,11.17
2022-12-23T16:21:33.766Z,11.63
2022-12-23T16:24:02.817Z,9.43
2022-12-23T16:26:32.062Z,9.03
2022-12-23T16:29:02.059Z,9.03
2022-12-23T16:31:30.527Z,8.73
2022-12-23T16:33:59.872Z,7.90
2022-12-23T16:36:35.276Z,8.67
2022-12-23T16:39:15.135Z,8.27
2022-12-23T16:41:44.793Z,9.13
2022-12-23T16:44:12.452Z,8.53
2022-12-23T16:46:45.754Z,9.03
2022-12-23T16:49:17.425Z,8.03
2022-12-23T16:51:45.978Z,7.93
2022-12-23T16:54:16.283Z,7.93
2022-12-23T16:56:47.760Z,7.87
2022-12-23T16:59:16.356Z,7.10
2022-12-23T17:01:46.548Z,6.50
2022-12-23T17:04:16.410Z,6.20
2022-12-23T17:06:46.619Z,6.97
2022-12-23T17:09:14.668Z,6.17
2022-12-23T17:11:47.094Z,6.30
2022-12-23T17:14:19.809Z,6.03
2022-12-23T17:16:48.270Z,5.77
2022-12-23T17:19:21.873Z,4.63
2022-12-23T17:21:58.481Z,4.60
2022-12-23T17:24:27.977Z,4.90
2022-12-23T17:26:58.875Z,4.83
2022-12-23T17:29:26.561Z,4.60
2022-12-23T17:31:54.749Z,4.00
2022-12-23T17:34:25.650Z,4.00
2022-12-23T17:36:53.917Z,3.70
2022-12-23T17:39:22.769Z,3.50
2022-12-23T17:41:51.104Z,2.90
2022-12-23T17:44:21.183Z,3.13
2022-12-23T17:46:49.521Z,3.23
2022-12-23T17:49:17.420Z,2.90
2022-12-23T17:51:45.124Z,3.97
2022-12-23T17:54:23.704Z,3.57
2022-12-23T17:56:51.766Z,3.60
2022-12-23T17:59:23.095Z,3.63
2022-12-23T18:01:52.109Z,3.03
2022-12-23T18:04:20.536Z,3.07
2022-12-23T18:06:48.342Z,5.10
2022-12-23T18:09:16.988Z,5.00
2022-12-23T18:11:46.236Z,4.77
2022-12-23T18:14:17.580Z,3.57
2022-12-23T18:16:46.914Z,3.20
2022-12-23T18:19:18.467Z,4.37
2022-12-23T18:21:46.716Z,3.47
2022-12-23T18:24:14.557Z,3.60
2022-12-23T18:26:42.315Z,3.90
2022-12-23T18:29:11.787Z,3.90
2022-12-23T18:31:51.099Z,3.60
2022-12-23T18:34:23.088Z,4.07
2022-12-23T18:36:53.269Z,3.53
2022-12-23T18:39:24.258Z,3.47
2022-12-23T18:41:52.924Z,4.70
2022-12-23T18:44:21.982Z,3.90
2022-12-23T18:46:50.553Z,3.67
2022-12-23T18:49:19.145Z,4.07
2022-12-23T18:51:48.733Z,5.00
2022-12-23T18:54:17.703Z,4.50
2022-12-23T18:56:46.770Z,4.20
2022-12-23T18:59:18.065Z,4.60
2022-12-23T19:01:48.103Z,4.50
2022-12-23T19:04:16.398Z,5.00
2022-12-23T19:06:44.134Z,5.27
2022-12-23T19:09:16.952Z,5.77
2022-12-23T19:11:46.781Z,5.70
2022-12-23T19:14:15.532Z,5.13
2022-12-23T19:16:49.293Z,6.10
2022-12-23T19:19:19.598Z,6.67
2022-12-23T19:21:47.660Z,7.23
2022-12-23T19:24:16.761Z,8.07
2022-12-23T19:26:44.654Z,7.03
2022-12-23T19:29:12.557Z,7.77
2022-12-23T19:31:40.854Z,8.73
2022-12-23T19:34:14.668Z,9.87
2022-12-23T19:36:46.056Z,9.30
2022-12-23T19:39:23.079Z,8.17
2022-12-23T19:41:51.203Z,8.30
2022-12-23T19:44:18.972Z,8.87
2022-12-23T19:46:46.733Z,8.97
2022-12-23T19:49:19.762Z,8.90
2022-12-23T19:51:49.094Z,9.20
2022-12-23T19:54:19.277Z,8.27
2022-12-23T19:56:47.730Z,9.27
2022-12-23T19:59:15.511Z,9.10
2022-12-23T20:01:43.861Z,9.00
2022-12-23T20:04:13.805Z,8.50
2022-12-23T20:06:42.728Z,9.10
2022-12-23T20:09:13.334Z,10.80
2022-12-23T20:11:44.999Z,9.57
2022-12-23T20:14:14.275Z,9.10
2022-12-23T20:16:42.192Z,10.07
2022-12-23T20:19:09.951Z,9.80
2022-12-23T20:21:38.658Z,9.47
2022-12-23T20:24:07.203Z,9.37
2022-12-23T20:26:35.418Z,9.13
2022-12-23T20:29:06.257Z,9.63
2022-12-23T20:31:35.469Z,8.90
2022-12-23T20:34:05.479Z,9.37
2022-12-23T20:36:34.969Z,9.40
2022-12-23T20:39:03.471Z,8.67
2022-12-23T20:41:33.339Z,9.07
2022-12-23T20:46:51.559Z,8.43
2022-12-23T20:49:19.523Z,8.43
2022-12-23T20:51:47.345Z,8.27
2022-12-23T20:54:15.545Z,7.50
2022-12-23T20:56:43.271Z,7.13
2022-12-23T20:59:11.416Z,7.53
2022-12-23T21:01:41.847Z,7.53
2022-12-23T21:04:15.913Z,7.30
2022-12-23T21:06:45.240Z,6.83
2022-12-23T21:09:15.826Z,6.33
2022-12-23T21:11:46.411Z,5.80
2022-12-23T21:14:15.762Z,5.97
2022-12-23T21:16:44.927Z,6.27
2022-12-23T21:19:18.817Z,5.83
2022-12-23T21:21:47.066Z,6.07
2022-12-23T21:24:15.305Z,5.83
2022-12-23T21:26:48.965Z,5.27
2022-12-23T21:29:19.636Z,4.40
2022-12-23T21:31:48.132Z,4.90
2022-12-23T21:34:18.452Z,4.53
2022-12-23T21:36:46.473Z,4.50
2022-12-23T21:39:16.489Z,3.70
2022-12-23T21:41:44.456Z,3.90
2022-12-23T21:44:14.759Z,3.50
2022-12-23T21:46:42.849Z,3.70
2022-12-23T21:49:11.160Z,3.37
2022-12-23T21:51:41.717Z,3.43
2022-12-23T21:54:11.531Z,3.63
2022-12-23T21:56:40.429Z,3.70
2022-12-23T21:59:12.392Z,4.70
2022-12-23T22:01:40.489Z,3.67
2022-12-23T22:04:09.984Z,3.90
2022-12-23T22:06:43.762Z,4.00
2022-12-23T22:09:14.441Z,4.20
2022-12-23T22:11:42.417Z,4.23
2022-12-23T22:14:13.661Z,4.23
2022-12-23T22:16:42.934Z,4.13
2022-12-23T22:19:12.854Z,4.37
2022-12-23T22:21:42.869Z,4.47
2022-12-23T22:24:11.443Z,5.43
2022-12-23T22:26:41.102Z,4.20
2022-12-23T22:29:09.411Z,4.67
2022-12-23T22:31:40.789Z,4.47
2022-12-23T22:34:09.867Z,5.50
2022-12-23T22:36:37.743Z,4.33
2022-12-23T22:39:07.934Z,4.20
2022-12-23T22:41:36.456Z,5.53
2022-12-23T22:44:04.616Z,5.13
2022-12-23T22:46:32.988Z,5.00
2022-12-23T22:49:01.086Z,5.43
2022-12-23T22:51:32.027Z,5.13
2022-12-23T22:54:00.417Z,5.90
2022-12-23T22:56:30.149Z,5.67
2022-12-23T22:58:58.895Z,5.50
2022-12-23T23:01:29.233Z,4.80
2022-12-23T23:03:58.418Z,5.17
2022-12-23T23:06:27.372Z,5.07
2022-12-23T23:08:55.635Z,4.30
2022-12-23T23:11:24.113Z,5.03
2022-12-23T23:13:57.662Z,4.37
2022-12-23T23:16:26.104Z,4.57
2022-12-23T23:18:54.556Z,4.53
2022-12-23T23:21:22.494Z,5.00
2022-12-23T23:23:51.049Z,4.10
2022-12-23T23:26:20.473Z,4.70
2022-12-23T23:28:49.254Z,3.30
2022-12-23T23:34:06.044Z,3.20
2022-12-23T23:36:34.195Z,3.23
2022-12-23T23:39:02.058Z,3.40
2022-12-23T23:41:30.745Z,3.30
2022-12-23T23:43:58.894Z,2.90
2022-12-23T23:46:27.943Z,2.77
2022-12-23T23:48:55.945Z,3.07
2022-12-23T23:51:24.224Z,2.47
2022-12-23T23:53:52.325Z,2.70
2022-12-23T23:56:25.127Z,2.33
2022-12-23T23:58:53.707Z,2.77
